Terminal Aerodrome Forecast
Issued by NWS

Home | Current Version | Previous Version | Graphics & Text | Print | Product List | Glossary On
Versions: 1 2 3 4 5 6 7 8 9 10 11 12 13 14 15 16 17 18 19
000
FTUS43 KIWX 240500
TAFSBN
TAF
KSBN 240535Z 2406/2506 VRB04KT P6SM OVC050
     FM240800 03005KT 4SM -RA BR OVC050
     FM241100 03010KT 3SM RA BR SCT008 OVC015
     FM241400 03012G19KT 2SM RA BR OVC008
     FM242100 34016G23KT 1 1/2SM -RASN BR OVC004
     FM242300 28015G23KT 3/4SM -SN BR OVC004=

USA.gov is the U.S. government's official web portal to all federal, state and local government web resources and services.